sensor_id;sensor_type;location;lat;lon;timestamp;P1;durP1;ratioP1;P2;durP2;ratioP2
18407;SDS011;9330;52.210;21.174;2023-05-21T00:00:15;4.82;;;4.30;;
18407;SDS011;9330;52.210;21.174;2023-05-21T00:02:42;9.85;;;4.68;;
18407;SDS011;9330;52.210;21.174;2023-05-21T00:05:09;4.90;;;4.40;;
18407;SDS011;9330;52.210;21.174;2023-05-21T00:07:40;6.13;;;3.90;;
18407;SDS011;9330;52.210;21.174;2023-05-21T00:10:07;4.45;;;3.65;;
18407;SDS011;9330;52.210;21.174;2023-05-21T00:12:34;4.95;;;3.85;;
18407;SDS011;9330;52.210;21.174;2023-05-21T00:15:01;7.75;;;4.13;;
18407;SDS011;9330;52.210;21.174;2023-05-21T00:17:28;5.45;;;4.20;;
18407;SDS011;9330;52.210;21.174;2023-05-21T00:19:55;4.60;;;4.13;;
18407;SDS011;9330;52.210;21.174;2023-05-21T00:22:23;4.05;;;3.58;;
18407;SDS011;9330;52.210;21.174;2023-05-21T00:24:52;5.03;;;3.65;;
18407;SDS011;9330;52.210;21.174;2023-05-21T00:27:19;5.28;;;4.15;;
18407;SDS011;9330;52.210;21.174;2023-05-21T00:29:46;6.30;;;4.50;;
18407;SDS011;9330;52.210;21.174;2023-05-21T00:32:13;4.75;;;3.88;;
18407;SDS011;9330;52.210;21.174;2023-05-21T00:34:40;5.88;;;3.95;;
18407;SDS011;9330;52.210;21.174;2023-05-21T00:37:06;5.97;;;4.30;;
18407;SDS011;9330;52.210;21.174;2023-05-21T00:39:34;4.40;;;4.00;;
18407;SDS011;9330;52.210;21.174;2023-05-21T00:42:03;7.75;;;4.00;;
18407;SDS011;9330;52.210;21.174;2023-05-21T00:44:30;4.50;;;3.72;;
18407;SDS011;9330;52.210;21.174;2023-05-21T00:46:58;4.50;;;4.07;;
18407;SDS011;9330;52.210;21.174;2023-05-21T00:49:26;7.20;;;4.38;;
18407;SDS011;9330;52.210;21.174;2023-05-21T00:51:53;4.65;;;4.15;;
18407;SDS011;9330;52.210;21.174;2023-05-21T00:54:21;5.75;;;4.10;;
18407;SDS011;9330;52.210;21.174;2023-05-21T00:56:49;4.90;;;4.30;;
18407;SDS011;9330;52.210;21.174;2023-05-21T00:59:18;6.78;;;4.15;;
18407;SDS011;9330;52.210;21.174;2023-05-21T01:01:45;6.60;;;4.15;;
18407;SDS011;9330;52.210;21.174;2023-05-21T01:04:17;4.13;;;3.60;;
18407;SDS011;9330;52.210;21.174;2023-05-21T01:06:45;5.00;;;3.78;;
18407;SDS011;9330;52.210;21.174;2023-05-21T01:09:11;5.10;;;4.25;;
18407;SDS011;9330;52.210;21.174;2023-05-21T01:11:39;6.82;;;4.47;;
18407;SDS011;9330;52.210;21.174;2023-05-21T01:14:07;4.75;;;3.58;;
18407;SDS011;9330;52.210;21.174;2023-05-21T01:16:38;4.78;;;4.13;;
18407;SDS011;9330;52.210;21.174;2023-05-21T01:19:08;4.35;;;3.83;;
18407;SDS011;9330;52.210;21.174;2023-05-21T01:21:40;5.85;;;4.10;;
18407;SDS011;9330;52.210;21.174;2023-05-21T01:24:11;4.50;;;3.72;;
18407;SDS011;9330;52.210;21.174;2023-05-21T01:26:38;6.28;;;4.03;;
18407;SDS011;9330;52.210;21.174;2023-05-21T01:29:08;7.63;;;3.70;;
18407;SDS011;9330;52.210;21.174;2023-05-21T01:31:40;6.15;;;4.07;;
18407;SDS011;9330;52.210;21.174;2023-05-21T01:34:13;6.40;;;4.00;;
18407;SDS011;9330;52.210;21.174;2023-05-21T01:36:46;5.47;;;4.10;;
18407;SDS011;9330;52.210;21.174;2023-05-21T01:39:21;4.45;;;4.03;;
18407;SDS011;9330;52.210;21.174;2023-05-21T01:41:52;5.53;;;4.05;;
18407;SDS011;9330;52.210;21.174;2023-05-21T01:44:21;4.68;;;3.90;;
18407;SDS011;9330;52.210;21.174;2023-05-21T01:46:49;5.63;;;4.53;;
18407;SDS011;9330;52.210;21.174;2023-05-21T01:49:18;4.72;;;4.20;;
18407;SDS011;9330;52.210;21.174;2023-05-21T01:51:46;5.72;;;4.32;;
18407;SDS011;9330;52.210;21.174;2023-05-21T01:54:14;9.48;;;4.13;;
18407;SDS011;9330;52.210;21.174;2023-05-21T01:56:42;5.03;;;3.83;;
18407;SDS011;9330;52.210;21.174;2023-05-21T01:59:10;7.90;;;4.35;;
18407;SDS011;9330;52.210;21.174;2023-05-21T02:01:36;4.35;;;3.88;;
18407;SDS011;9330;52.210;21.174;2023-05-21T02:04:04;5.15;;;3.80;;
18407;SDS011;9330;52.210;21.174;2023-05-21T02:06:30;5.85;;;3.60;;
18407;SDS011;9330;52.210;21.174;2023-05-21T02:08:59;4.95;;;3.65;;
18407;SDS011;9330;52.210;21.174;2023-05-21T02:11:26;4.43;;;3.80;;
18407;SDS011;9330;52.210;21.174;2023-05-21T02:13:55;5.25;;;4.10;;
18407;SDS011;9330;52.210;21.174;2023-05-21T02:16:22;6.30;;;4.00;;
18407;SDS011;9330;52.210;21.174;2023-05-21T02:18:50;4.35;;;3.75;;
18407;SDS011;9330;52.210;21.174;2023-05-21T02:21:18;5.32;;;3.78;;
18407;SDS011;9330;52.210;21.174;2023-05-21T02:23:45;4.07;;;3.67;;
18407;SDS011;9330;52.210;21.174;2023-05-21T02:26:12;4.95;;;3.95;;
18407;SDS011;9330;52.210;21.174;2023-05-21T02:28:41;4.45;;;3.65;;
18407;SDS011;9330;52.210;21.174;2023-05-21T02:31:09;6.72;;;3.90;;
18407;SDS011;9330;52.210;21.174;2023-05-21T02:33:38;8.77;;;3.75;;
18407;SDS011;9330;52.210;21.174;2023-05-21T02:36:05;5.38;;;4.00;;
18407;SDS011;9330;52.210;21.174;2023-05-21T02:38:36;5.10;;;3.63;;
18407;SDS011;9330;52.210;21.174;2023-05-21T02:41:04;4.35;;;3.95;;
18407;SDS011;9330;52.210;21.174;2023-05-21T02:43:31;4.68;;;3.47;;
18407;SDS011;9330;52.210;21.174;2023-05-21T02:45:58;5.13;;;3.67;;
18407;SDS011;9330;52.210;21.174;2023-05-21T02:48:26;7.50;;;3.83;;
18407;SDS011;9330;52.210;21.174;2023-05-21T02:50:53;4.65;;;3.70;;
18407;SDS011;9330;52.210;21.174;2023-05-21T02:53:20;7.60;;;3.88;;
18407;SDS011;9330;52.210;21.174;2023-05-21T02:55:47;6.28;;;3.55;;
18407;SDS011;9330;52.210;21.174;2023-05-21T02:58:14;5.07;;;3.72;;
18407;SDS011;9330;52.210;21.174;2023-05-21T03:00:41;4.82;;;3.97;;
18407;SDS011;9330;52.210;21.174;2023-05-21T03:03:08;6.60;;;3.80;;
18407;SDS011;9330;52.210;21.174;2023-05-21T03:05:37;6.63;;;4.25;;
18407;SDS011;9330;52.210;21.174;2023-05-21T03:08:04;4.18;;;3.78;;
18407;SDS011;9330;52.210;21.174;2023-05-21T03:10:31;4.25;;;3.70;;
18407;SDS011;9330;52.210;21.174;2023-05-21T03:12:57;5.00;;;3.92;;
18407;SDS011;9330;52.210;21.174;2023-05-21T03:15:25;5.80;;;4.35;;
18407;SDS011;9330;52.210;21.174;2023-05-21T03:17:57;6.32;;;4.15;;
18407;SDS011;9330;52.210;21.174;2023-05-21T03:20:24;5.72;;;3.78;;
18407;SDS011;9330;52.210;21.174;2023-05-21T03:22:53;6.05;;;4.30;;
18407;SDS011;9330;52.210;21.174;2023-05-21T03:25:20;4.68;;;4.05;;
18407;SDS011;9330;52.210;21.174;2023-05-21T03:27:49;4.63;;;3.80;;
18407;SDS011;9330;52.210;21.174;2023-05-21T03:30:16;4.65;;;3.75;;
18407;SDS011;9330;52.210;21.174;2023-05-21T03:32:43;4.13;;;3.70;;
18407;SDS011;9330;52.210;21.174;2023-05-21T03:35:11;5.15;;;3.85;;
18407;SDS011;9330;52.210;21.174;2023-05-21T03:37:38;5.10;;;3.88;;
18407;SDS011;9330;52.210;21.174;2023-05-21T03:40:07;4.55;;;3.97;;
18407;SDS011;9330;52.210;21.174;2023-05-21T03:42:35;4.55;;;3.75;;
18407;SDS011;9330;52.210;21.174;2023-05-21T03:45:02;5.72;;;3.78;;
18407;SDS011;9330;52.210;21.174;2023-05-21T03:47:29;5.90;;;3.75;;
18407;SDS011;9330;52.210;21.174;2023-05-21T03:49:56;5.78;;;3.60;;
18407;SDS011;9330;52.210;21.174;2023-05-21T03:52:23;4.63;;;3.17;;
18407;SDS011;9330;52.210;21.174;2023-05-21T03:54:49;7.45;;;3.80;;
18407;SDS011;9330;52.210;21.174;2023-05-21T03:57:18;4.15;;;3.25;;
18407;SDS011;9330;52.210;21.174;2023-05-21T03:59:45;5.32;;;3.60;;
18407;SDS011;9330;52.210;21.174;2023-05-21T04:02:13;4.93;;;3.58;;
18407;SDS011;9330;52.210;21.174;2023-05-21T04:04:40;4.93;;;3.38;;
18407;SDS011;9330;52.210;21.174;2023-05-21T04:07:08;6.03;;;3.28;;
18407;SDS011;9330;52.210;21.174;2023-05-21T04:09:38;3.97;;;3.25;;
18407;SDS011;9330;52.210;21.174;2023-05-21T04:12:05;4.60;;;3.38;;
18407;SDS011;9330;52.210;21.174;2023-05-21T04:14:34;4.72;;;3.13;;
18407;SDS011;9330;52.210;21.174;2023-05-21T04:17:02;4.18;;;3.00;;
18407;SDS011;9330;52.210;21.174;2023-05-21T04:19:29;5.03;;;3.05;;
18407;SDS011;9330;52.210;21.174;2023-05-21T04:21:56;3.58;;;2.80;;
18407;SDS011;9330;52.210;21.174;2023-05-21T04:24:23;4.45;;;3.00;;
18407;SDS011;9330;52.210;21.174;2023-05-21T04:26:50;4.22;;;3.13;;
18407;SDS011;9330;52.210;21.174;2023-05-21T04:29:17;3.50;;;2.72;;
18407;SDS011;9330;52.210;21.174;2023-05-21T04:31:46;4.22;;;2.90;;
18407;SDS011;9330;52.210;21.174;2023-05-21T04:34:14;3.90;;;3.05;;
18407;SDS011;9330;52.210;21.174;2023-05-21T04:36:42;4.50;;;2.70;;
18407;SDS011;9330;52.210;21.174;2023-05-21T04:39:10;5.28;;;3.20;;
18407;SDS011;9330;52.210;21.174;2023-05-21T04:41:37;4.45;;;2.80;;
18407;SDS011;9330;52.210;21.174;2023-05-21T04:44:06;5.40;;;2.90;;
18407;SDS011;9330;52.210;21.174;2023-05-21T04:46:33;3.17;;;2.78;;
18407;SDS011;9330;52.210;21.174;2023-05-21T04:49:03;3.63;;;2.50;;
18407;SDS011;9330;52.210;21.174;2023-05-21T04:51:30;4.65;;;2.63;;
18407;SDS011;9330;52.210;21.174;2023-05-21T04:53:57;4.13;;;2.83;;
18407;SDS011;9330;52.210;21.174;2023-05-21T04:56:24;2.90;;;2.35;;
18407;SDS011;9330;52.210;21.174;2023-05-21T04:58:51;5.30;;;2.80;;
18407;SDS011;9330;52.210;21.174;2023-05-21T05:01:18;4.25;;;2.55;;
18407;SDS011;9330;52.210;21.174;2023-05-21T05:03:47;5.03;;;2.60;;
18407;SDS011;9330;52.210;21.174;2023-05-21T05:06:16;2.85;;;2.28;;
18407;SDS011;9330;52.210;21.174;2023-05-21T05:08:42;2.75;;;1.85;;
18407;SDS011;9330;52.210;21.174;2023-05-21T05:11:10;2.22;;;2.03;;
18407;SDS011;9330;52.210;21.174;2023-05-21T05:13:38;5.32;;;2.45;;
18407;SDS011;9330;52.210;21.174;2023-05-21T05:16:05;3.10;;;2.08;;
18407;SDS011;9330;52.210;21.174;2023-05-21T05:18:32;5.55;;;2.20;;
18407;SDS011;9330;52.210;21.174;2023-05-21T05:20:59;2.78;;;2.00;;
18407;SDS011;9330;52.210;21.174;2023-05-21T05:23:27;2.50;;;1.77;;
18407;SDS011;9330;52.210;21.174;2023-05-21T05:25:54;2.17;;;1.80;;
18407;SDS011;9330;52.210;21.174;2023-05-21T05:28:21;3.55;;;1.98;;
18407;SDS011;9330;52.210;21.174;2023-05-21T05:30:48;3.53;;;2.00;;
18407;SDS011;9330;52.210;21.174;2023-05-21T05:33:14;2.95;;;1.90;;
18407;SDS011;9330;52.210;21.174;2023-05-21T05:35:41;2.95;;;2.10;;
18407;SDS011;9330;52.210;21.174;2023-05-21T05:38:08;4.30;;;1.85;;
18407;SDS011;9330;52.210;21.174;2023-05-21T05:40:37;2.47;;;2.22;;
18407;SDS011;9330;52.210;21.174;2023-05-21T05:43:03;3.80;;;1.83;;
18407;SDS011;9330;52.210;21.174;2023-05-21T05:45:30;2.78;;;1.77;;
18407;SDS011;9330;52.210;21.174;2023-05-21T05:47:57;3.60;;;1.88;;
18407;SDS011;9330;52.210;21.174;2023-05-21T05:50:24;6.05;;;2.00;;
18407;SDS011;9330;52.210;21.174;2023-05-21T05:52:51;2.33;;;1.80;;
18407;SDS011;9330;52.210;21.174;2023-05-21T05:55:18;2.65;;;1.80;;
18407;SDS011;9330;52.210;21.174;2023-05-21T05:57:47;2.85;;;1.77;;
18407;SDS011;9330;52.210;21.174;2023-05-21T06:00:14;2.42;;;1.92;;
18407;SDS011;9330;52.210;21.174;2023-05-21T06:02:42;3.95;;;1.90;;
18407;SDS011;9330;52.210;21.174;2023-05-21T06:05:09;3.63;;;1.80;;
18407;SDS011;9330;52.210;21.174;2023-05-21T06:07:36;2.13;;;1.67;;
18407;SDS011;9330;52.210;21.174;2023-05-21T06:10:03;2.50;;;1.92;;
18407;SDS011;9330;52.210;21.174;2023-05-21T06:12:31;3.15;;;1.65;;
18407;SDS011;9330;52.210;21.174;2023-05-21T06:14:59;1.60;;;1.50;;
18407;SDS011;9330;52.210;21.174;2023-05-21T06:17:26;2.40;;;1.77;;
18407;SDS011;9330;52.210;21.174;2023-05-21T06:19:53;2.72;;;1.70;;
18407;SDS011;9330;52.210;21.174;2023-05-21T06:22:20;3.90;;;2.00;;
18407;SDS011;9330;52.210;21.174;2023-05-21T06:24:46;2.50;;;1.90;;
18407;SDS011;9330;52.210;21.174;2023-05-21T06:27:13;2.55;;;1.80;;
18407;SDS011;9330;52.210;21.174;2023-05-21T06:29:40;2.25;;;1.50;;
18407;SDS011;9330;52.210;21.174;2023-05-21T06:32:08;2.83;;;1.83;;
18407;SDS011;9330;52.210;21.174;2023-05-21T06:34:35;2.22;;;1.55;;
18407;SDS011;9330;52.210;21.174;2023-05-21T06:37:02;2.35;;;1.58;;
18407;SDS011;9330;52.210;21.174;2023-05-21T06:39:29;2.90;;;1.90;;
18407;SDS011;9330;52.210;21.174;2023-05-21T06:41:56;4.65;;;1.75;;
18407;SDS011;9330;52.210;21.174;2023-05-21T06:44:23;3.58;;;1.40;;
18407;SDS011;9330;52.210;21.174;2023-05-21T06:46:49;4.13;;;2.10;;
18407;SDS011;9330;52.210;21.174;2023-05-21T06:49:18;2.45;;;1.75;;
18407;SDS011;9330;52.210;21.174;2023-05-21T06:51:44;3.10;;;1.75;;
18407;SDS011;9330;52.210;21.174;2023-05-21T06:54:11;3.00;;;1.92;;
18407;SDS011;9330;52.210;21.174;2023-05-21T06:56:38;2.47;;;1.60;;
18407;SDS011;9330;52.210;21.174;2023-05-21T06:59:05;4.07;;;1.75;;
18407;SDS011;9330;52.210;21.174;2023-05-21T07:01:33;3.88;;;1.85;;
18407;SDS011;9330;52.210;21.174;2023-05-21T07:04:00;2.58;;;1.95;;
18407;SDS011;9330;52.210;21.174;2023-05-21T07:06:28;4.95;;;2.13;;
18407;SDS011;9330;52.210;21.174;2023-05-21T07:08:56;2.63;;;1.77;;
18407;SDS011;9330;52.210;21.174;2023-05-21T07:11:22;4.68;;;1.83;;
18407;SDS011;9330;52.210;21.174;2023-05-21T07:13:52;2.92;;;1.30;;
18407;SDS011;9330;52.210;21.174;2023-05-21T07:16:20;8.32;;;1.98;;
18407;SDS011;9330;52.210;21.174;2023-05-21T07:18:47;2.20;;;1.67;;
18407;SDS011;9330;52.210;21.174;2023-05-21T07:21:14;2.85;;;1.70;;
18407;SDS011;9330;52.210;21.174;2023-05-21T07:23:42;2.17;;;1.77;;
18407;SDS011;9330;52.210;21.174;2023-05-21T07:26:09;2.85;;;2.00;;
18407;SDS011;9330;52.210;21.174;2023-05-21T07:28:38;2.58;;;1.55;;
18407;SDS011;9330;52.210;21.174;2023-05-21T07:31:05;3.88;;;1.83;;
18407;SDS011;9330;52.210;21.174;2023-05-21T07:33:32;2.70;;;1.75;;
18407;SDS011;9330;52.210;21.174;2023-05-21T07:35:59;5.00;;;1.77;;
18407;SDS011;9330;52.210;21.174;2023-05-21T07:38:26;2.75;;;1.70;;
18407;SDS011;9330;52.210;21.174;2023-05-21T07:40:54;2.42;;;1.95;;
18407;SDS011;9330;52.210;21.174;2023-05-21T07:43:21;1.90;;;1.65;;
18407;SDS011;9330;52.210;21.174;2023-05-21T07:45:48;1.98;;;1.70;;
18407;SDS011;9330;52.210;21.174;2023-05-21T07:48:15;2.15;;;1.85;;
18407;SDS011;9330;52.210;21.174;2023-05-21T07:50:43;2.53;;;1.70;;
18407;SDS011;9330;52.210;21.174;2023-05-21T07:53:13;2.80;;;1.70;;
18407;SDS011;9330;52.210;21.174;2023-05-21T07:55:40;3.45;;;2.15;;
18407;SDS011;9330;52.210;21.174;2023-05-21T07:58:13;3.72;;;1.67;;
18407;SDS011;9330;52.210;21.174;2023-05-21T08:00:41;6.22;;;1.52;;
18407;SDS011;9330;52.210;21.174;2023-05-21T08:03:08;3.33;;;1.65;;
18407;SDS011;9330;52.210;21.174;2023-05-21T08:05:36;3.35;;;1.63;;
18407;SDS011;9330;52.210;21.174;2023-05-21T08:08:03;3.60;;;1.90;;
18407;SDS011;9330;52.210;21.174;2023-05-21T08:10:30;3.55;;;1.80;;
18407;SDS011;9330;52.210;21.174;2023-05-21T08:12:57;6.43;;;1.75;;
18407;SDS011;9330;52.210;21.174;2023-05-21T08:15:25;5.85;;;2.20;;
18407;SDS011;9330;52.210;21.174;2023-05-21T08:17:52;5.22;;;1.90;;
18407;SDS011;9330;52.210;21.174;2023-05-21T08:20:20;4.85;;;1.75;;
18407;SDS011;9330;52.210;21.174;2023-05-21T08:22:47;3.35;;;1.60;;
18407;SDS011;9330;52.210;21.174;2023-05-21T08:25:14;3.90;;;1.80;;
18407;SDS011;9330;52.210;21.174;2023-05-21T08:27:40;3.25;;;2.08;;
18407;SDS011;9330;52.210;21.174;2023-05-21T08:30:08;3.65;;;1.80;;
18407;SDS011;9330;52.210;21.174;2023-05-21T08:32:36;3.97;;;1.80;;
18407;SDS011;9330;52.210;21.174;2023-05-21T08:35:04;4.78;;;1.88;;
18407;SDS011;9330;52.210;21.174;2023-05-21T08:37:32;2.08;;;1.42;;
18407;SDS011;9330;52.210;21.174;2023-05-21T08:39:59;3.42;;;1.60;;
18407;SDS011;9330;52.210;21.174;2023-05-21T08:42:26;1.88;;;1.60;;
18407;SDS011;9330;52.210;21.174;2023-05-21T08:45:04;2.42;;;1.98;;
18407;SDS011;9330;52.210;21.174;2023-05-21T08:47:33;2.47;;;1.70;;
18407;SDS011;9330;52.210;21.174;2023-05-21T08:50:02;3.50;;;1.80;;
18407;SDS011;9330;52.210;21.174;2023-05-21T08:52:30;1.90;;;1.70;;
18407;SDS011;9330;52.210;21.174;2023-05-21T08:54:57;2.05;;;1.60;;
18407;SDS011;9330;52.210;21.174;2023-05-21T08:57:25;1.90;;;1.70;;
18407;SDS011;9330;52.210;21.174;2023-05-21T08:59:53;4.07;;;1.67;;
18407;SDS011;9330;52.210;21.174;2023-05-21T09:02:20;2.08;;;1.58;;
18407;SDS011;9330;52.210;21.174;2023-05-21T09:04:49;2.83;;;1.40;;
18407;SDS011;9330;52.210;21.174;2023-05-21T09:07:23;2.10;;;1.77;;
18407;SDS011;9330;52.210;21.174;2023-05-21T09:09:52;2.35;;;1.40;;
18407;SDS011;9330;52.210;21.174;2023-05-21T09:12:21;3.13;;;1.60;;
18407;SDS011;9330;52.210;21.174;2023-05-21T09:14:49;1.70;;;1.60;;
18407;SDS011;9330;52.210;21.174;2023-05-21T09:17:16;6.32;;;2.45;;
18407;SDS011;9330;52.210;21.174;2023-05-21T09:22:43;3.17;;;1.88;;
18407;SDS011;9330;52.210;21.174;2023-05-21T09:25:11;3.72;;;1.70;;
18407;SDS011;9330;52.210;21.174;2023-05-21T09:27:40;3.80;;;1.80;;
18407;SDS011;9330;52.210;21.174;2023-05-21T09:30:08;2.05;;;1.63;;
18407;SDS011;9330;52.210;21.174;2023-05-21T09:32:36;1.88;;;1.67;;
18407;SDS011;9330;52.210;21.174;2023-05-21T09:35:05;2.22;;;1.60;;
18407;SDS011;9330;52.210;21.174;2023-05-21T09:37:37;4.00;;;1.60;;
18407;SDS011;9330;52.210;21.174;2023-05-21T09:40:12;2.88;;;1.67;;
18407;SDS011;9330;52.210;21.174;2023-05-21T09:42:40;3.45;;;1.75;;
18407;SDS011;9330;52.210;21.174;2023-05-21T09:45:09;3.22;;;1.63;;
18407;SDS011;9330;52.210;21.174;2023-05-21T09:47:39;4.20;;;1.85;;
18407;SDS011;9330;52.210;21.174;2023-05-21T09:50:08;4.57;;;1.60;;
18407;SDS011;9330;52.210;21.174;2023-05-21T09:52:36;3.15;;;1.67;;
18407;SDS011;9330;52.210;21.174;2023-05-21T09:55:03;5.65;;;1.80;;
18407;SDS011;9330;52.210;21.174;2023-05-21T09:57:32;3.08;;;1.73;;
18407;SDS011;9330;52.210;21.174;2023-05-21T10:00:07;2.90;;;1.80;;
18407;SDS011;9330;52.210;21.174;2023-05-21T10:02:36;3.25;;;1.80;;
18407;SDS011;9330;52.210;21.174;2023-05-21T10:05:07;2.60;;;1.67;;
18407;SDS011;9330;52.210;21.174;2023-05-21T10:07:37;3.47;;;1.63;;
18407;SDS011;9330;52.210;21.174;2023-05-21T10:10:06;2.70;;;1.60;;
18407;SDS011;9330;52.210;21.174;2023-05-21T10:12:39;3.25;;;1.50;;
18407;SDS011;9330;52.210;21.174;2023-05-21T10:15:10;2.35;;;1.65;;
18407;SDS011;9330;52.210;21.174;2023-05-21T10:17:40;2.20;;;1.58;;
18407;SDS011;9330;52.210;21.174;2023-05-21T10:20:09;2.97;;;1.75;;
18407;SDS011;9330;52.210;21.174;2023-05-21T10:22:36;2.97;;;1.73;;
18407;SDS011;9330;52.210;21.174;2023-05-21T10:25:04;6.30;;;1.75;;
18407;SDS011;9330;52.210;21.174;2023-05-21T10:27:32;5.70;;;1.63;;
18407;SDS011;9330;52.210;21.174;2023-05-21T10:30:03;1.95;;;1.75;;
18407;SDS011;9330;52.210;21.174;2023-05-21T10:32:31;2.15;;;1.77;;
18407;SDS011;9330;52.210;21.174;2023-05-21T10:34:59;2.65;;;1.73;;
18407;SDS011;9330;52.210;21.174;2023-05-21T10:37:27;5.03;;;1.50;;
18407;SDS011;9330;52.210;21.174;2023-05-21T10:39:54;2.35;;;1.70;;
18407;SDS011;9330;52.210;21.174;2023-05-21T10:42:24;2.05;;;1.70;;
18407;SDS011;9330;52.210;21.174;2023-05-21T10:45:14;6.35;;;2.05;;
18407;SDS011;9330;52.210;21.174;2023-05-21T10:47:52;2.72;;;1.67;;
18407;SDS011;9330;52.210;21.174;2023-05-21T10:50:34;5.55;;;2.05;;
18407;SDS011;9330;52.210;21.174;2023-05-21T10:53:14;2.58;;;1.83;;
18407;SDS011;9330;52.210;21.174;2023-05-21T10:55:50;6.00;;;1.50;;
18407;SDS011;9330;52.210;21.174;2023-05-21T10:58:34;3.22;;;1.88;;
18407;SDS011;9330;52.210;21.174;2023-05-21T11:01:21;7.25;;;2.08;;
18407;SDS011;9330;52.210;21.174;2023-05-21T11:03:48;3.47;;;1.80;;
18407;SDS011;9330;52.210;21.174;2023-05-21T11:06:21;1.67;;;1.50;;
18407;SDS011;9330;52.210;21.174;2023-05-21T11:08:49;3.15;;;1.67;;
18407;SDS011;9330;52.210;21.174;2023-05-21T11:17:00;2.30;;;1.33;;
18407;SDS011;9330;52.210;21.174;2023-05-21T11:19:31;1.55;;;1.38;;
18407;SDS011;9330;52.210;21.174;2023-05-21T11:22:03;1.98;;;1.52;;
18407;SDS011;9330;52.210;21.174;2023-05-21T11:24:32;2.60;;;1.73;;
18407;SDS011;9330;52.210;21.174;2023-05-21T11:27:03;2.25;;;1.73;;
18407;SDS011;9330;52.210;21.174;2023-05-21T11:29:31;2.00;;;1.55;;
18407;SDS011;9330;52.210;21.174;2023-05-21T11:32:07;2.20;;;1.52;;
18407;SDS011;9330;52.210;21.174;2023-05-21T11:34:35;2.58;;;1.55;;
18407;SDS011;9330;52.210;21.174;2023-05-21T11:39:51;2.38;;;1.65;;
18407;SDS011;9330;52.210;21.174;2023-05-21T11:42:28;3.53;;;1.90;;
18407;SDS011;9330;52.210;21.174;2023-05-21T11:44:56;2.00;;;1.60;;
18407;SDS011;9330;52.210;21.174;2023-05-21T11:47:26;2.90;;;2.20;;
18407;SDS011;9330;52.210;21.174;2023-05-21T11:49:54;2.35;;;1.88;;
18407;SDS011;9330;52.210;21.174;2023-05-21T11:52:21;1.52;;;1.27;;
18407;SDS011;9330;52.210;21.174;2023-05-21T11:54:49;3.90;;;1.58;;
18407;SDS011;9330;52.210;21.174;2023-05-21T11:57:19;2.75;;;1.70;;
18407;SDS011;9330;52.210;21.174;2023-05-21T11:59:47;3.92;;;1.40;;
18407;SDS011;9330;52.210;21.174;2023-05-21T12:02:15;2.10;;;1.52;;
18407;SDS011;9330;52.210;21.174;2023-05-21T12:04:45;1.67;;;1.55;;
18407;SDS011;9330;52.210;21.174;2023-05-21T12:07:13;3.00;;;1.58;;
18407;SDS011;9330;52.210;21.174;2023-05-21T12:09:41;1.50;;;1.20;;
18407;SDS011;9330;52.210;21.174;2023-05-21T12:12:08;2.35;;;1.60;;
18407;SDS011;9330;52.210;21.174;2023-05-21T12:14:37;2.30;;;1.40;;
18407;SDS011;9330;52.210;21.174;2023-05-21T12:17:04;2.80;;;1.40;;
18407;SDS011;9330;52.210;21.174;2023-05-21T12:19:32;2.20;;;1.65;;
18407;SDS011;9330;52.210;21.174;2023-05-21T12:22:01;3.40;;;1.60;;
18407;SDS011;9330;52.210;21.174;2023-05-21T12:24:28;2.05;;;1.60;;
18407;SDS011;9330;52.210;21.174;2023-05-21T12:26:55;3.58;;;1.67;;
18407;SDS011;9330;52.210;21.174;2023-05-21T12:29:25;1.95;;;1.58;;
18407;SDS011;9330;52.210;21.174;2023-05-21T12:31:52;2.17;;;1.50;;
18407;SDS011;9330;52.210;21.174;2023-05-21T12:37:08;2.70;;;1.50;;
18407;SDS011;9330;52.210;21.174;2023-05-21T12:39:36;1.70;;;1.30;;
18407;SDS011;9330;52.210;21.174;2023-05-21T12:42:04;3.38;;;1.73;;
18407;SDS011;9330;52.210;21.174;2023-05-21T12:44:31;3.58;;;1.60;;
18407;SDS011;9330;52.210;21.174;2023-05-21T12:46:58;3.17;;;1.60;;
18407;SDS011;9330;52.210;21.174;2023-05-21T12:49:32;2.67;;;1.80;;
18407;SDS011;9330;52.210;21.174;2023-05-21T12:52:01;3.05;;;1.60;;
18407;SDS011;9330;52.210;21.174;2023-05-21T12:54:35;4.13;;;1.63;;
18407;SDS011;9330;52.210;21.174;2023-05-21T12:57:09;1.67;;;1.58;;
18407;SDS011;9330;52.210;21.174;2023-05-21T12:59:43;2.60;;;1.73;;
18407;SDS011;9330;52.210;21.174;2023-05-21T13:02:13;1.75;;;1.58;;
18407;SDS011;9330;52.210;21.174;2023-05-21T13:04:41;2.50;;;1.70;;
18407;SDS011;9330;52.210;21.174;2023-05-21T13:07:07;3.75;;;1.60;;
18407;SDS011;9330;52.210;21.174;2023-05-21T13:09:36;3.78;;;1.80;;
18407;SDS011;9330;52.210;21.174;2023-05-21T13:12:02;1.88;;;1.60;;
18407;SDS011;9330;52.210;21.174;2023-05-21T13:14:29;1.83;;;1.55;;
18407;SDS011;9330;52.210;21.174;2023-05-21T13:16:56;2.25;;;1.40;;
18407;SDS011;9330;52.210;21.174;2023-05-21T13:19:23;2.90;;;1.75;;
18407;SDS011;9330;52.210;21.174;2023-05-21T13:21:50;2.08;;;1.52;;
18407;SDS011;9330;52.210;21.174;2023-05-21T13:24:17;1.83;;;1.58;;
18407;SDS011;9330;52.210;21.174;2023-05-21T13:26:45;1.60;;;1.50;;
18407;SDS011;9330;52.210;21.174;2023-05-21T13:29:12;2.60;;;1.58;;
18407;SDS011;9330;52.210;21.174;2023-05-21T13:31:39;2.22;;;1.80;;
18407;SDS011;9330;52.210;21.174;2023-05-21T13:34:07;2.22;;;1.48;;
18407;SDS011;9330;52.210;21.174;2023-05-21T13:36:35;3.33;;;1.45;;
18407;SDS011;9330;52.210;21.174;2023-05-21T13:39:02;5.97;;;1.88;;
18407;SDS011;9330;52.210;21.174;2023-05-21T13:41:29;3.00;;;1.70;;
18407;SDS011;9330;52.210;21.174;2023-05-21T13:43:57;3.40;;;1.58;;
18407;SDS011;9330;52.210;21.174;2023-05-21T13:46:24;2.00;;;1.45;;
18407;SDS011;9330;52.210;21.174;2023-05-21T13:48:51;2.47;;;1.65;;
18407;SDS011;9330;52.210;21.174;2023-05-21T13:51:18;2.38;;;1.30;;
18407;SDS011;9330;52.210;21.174;2023-05-21T13:53:45;2.97;;;1.58;;
18407;SDS011;9330;52.210;21.174;2023-05-21T13:56:12;2.75;;;1.65;;
18407;SDS011;9330;52.210;21.174;2023-05-21T13:58:39;3.72;;;1.63;;
18407;SDS011;9330;52.210;21.174;2023-05-21T14:01:07;4.40;;;2.00;;
18407;SDS011;9330;52.210;21.174;2023-05-21T14:03:34;3.38;;;1.60;;
18407;SDS011;9330;52.210;21.174;2023-05-21T14:06:00;3.67;;;2.05;;
18407;SDS011;9330;52.210;21.174;2023-05-21T14:08:27;1.63;;;1.50;;
18407;SDS011;9330;52.210;21.174;2023-05-21T14:10:54;2.15;;;1.60;;
18407;SDS011;9330;52.210;21.174;2023-05-21T14:13:21;4.07;;;1.80;;
18407;SDS011;9330;52.210;21.174;2023-05-21T14:15:48;3.00;;;1.65;;
18407;SDS011;9330;52.210;21.174;2023-05-21T14:18:16;3.67;;;1.70;;
18407;SDS011;9330;52.210;21.174;2023-05-21T14:20:43;2.45;;;1.60;;
18407;SDS011;9330;52.210;21.174;2023-05-21T14:23:12;2.63;;;1.48;;
18407;SDS011;9330;52.210;21.174;2023-05-21T14:25:39;1.55;;;1.38;;
18407;SDS011;9330;52.210;21.174;2023-05-21T14:28:06;1.60;;;1.42;;
18407;SDS011;9330;52.210;21.174;2023-05-21T14:30:33;3.17;;;1.60;;
18407;SDS011;9330;52.210;21.174;2023-05-21T14:33:00;1.73;;;1.60;;
18407;SDS011;9330;52.210;21.174;2023-05-21T14:35:28;2.65;;;1.30;;
18407;SDS011;9330;52.210;21.174;2023-05-21T14:37:55;2.65;;;1.75;;
18407;SDS011;9330;52.210;21.174;2023-05-21T14:40:22;1.65;;;1.52;;
18407;SDS011;9330;52.210;21.174;2023-05-21T14:42:49;3.03;;;1.80;;
18407;SDS011;9330;52.210;21.174;2023-05-21T14:45:17;2.10;;;1.73;;
18407;SDS011;9330;52.210;21.174;2023-05-21T14:47:44;3.53;;;1.65;;
18407;SDS011;9330;52.210;21.174;2023-05-21T14:50:12;1.95;;;1.67;;
18407;SDS011;9330;52.210;21.174;2023-05-21T14:52:41;3.78;;;1.73;;
18407;SDS011;9330;52.210;21.174;2023-05-21T14:55:08;1.90;;;1.40;;
18407;SDS011;9330;52.210;21.174;2023-05-21T14:57:37;2.65;;;1.70;;
18407;SDS011;9330;52.210;21.174;2023-05-21T15:00:05;1.80;;;1.50;;
18407;SDS011;9330;52.210;21.174;2023-05-21T15:02:32;2.13;;;1.67;;
18407;SDS011;9330;52.210;21.174;2023-05-21T15:04:59;1.77;;;1.60;;
18407;SDS011;9330;52.210;21.174;2023-05-21T15:07:26;3.25;;;1.70;;